Time;durP1;ratioP1;P1;durP2;ratioP2;P2;SDS_P1;SDS_P2;PMS_P1;PMS_P2;Temp;Humidity;BMP_temperature;BMP_pressure;BME280_temperature;BME280_humidity;BME280_pressure;Samples;Min_cycle;Max_cycle;Signal;HPM_P1;HPM_P2
2023/05/12 00:02:06;;;;;;;36.40;21.73;;;12.10;99.90;;;;;;5021766;28;20460;-60
2023/05/12 00:04:32;;;;;;;33.75;22.48;;;12.00;99.90;;;;;;5020901;28;20049;-56
2023/05/12 00:06:57;;;;;;;32.95;21.73;;;12.10;99.90;;;;;;5021381;28;20045;-57
2023/05/12 00:09:23;;;;;;;34.20;21.33;;;12.00;99.90;;;;;;5020976;28;20046;-61
2023/05/12 00:11:49;;;;;;;38.22;21.98;;;12.10;99.90;;;;;;5020805;28;20044;-57
2023/05/12 00:14:15;;;;;;;32.40;21.00;;;12.10;99.90;;;;;;5024052;28;20060;-59
2023/05/12 00:16:40;;;;;;;34.75;22.55;;;12.10;99.90;;;;;;5024953;28;20242;-53
2023/05/12 00:19:06;;;;;;;36.00;22.45;;;12.10;99.90;;;;;;5025593;28;20045;-56
2023/05/12 00:21:32;;;;;;;34.10;23.35;;;12.10;99.90;;;;;;5024073;28;20041;-59
2023/05/12 00:23:57;;;;;;;33.55;21.70;;;12.10;99.90;;;;;;5025047;28;20141;-59
2023/05/12 00:26:23;;;;;;;36.83;23.80;;;12.10;99.90;;;;;;5024332;28;20045;-56
2023/05/12 00:28:49;;;;;;;37.80;24.52;;;12.20;99.90;;;;;;5024628;28;20095;-57
2023/05/12 00:31:15;;;;;;;35.63;24.30;;;12.20;99.90;;;;;;5024086;28;20472;-60
2023/05/12 00:33:41;;;;;;;37.42;23.38;;;12.10;99.90;;;;;;5006893;28;20112;-58
2023/05/12 00:36:07;;;;;;;36.45;23.75;;;12.10;99.90;;;;;;5024845;28;20077;-56
2023/05/12 00:38:36;;;;;;;37.28;23.90;;;12.10;99.90;;;;;;5023984;28;20118;-61
2023/05/12 00:41:03;;;;;;;40.15;24.60;;;12.20;99.90;;;;;;5023431;28;20046;-60
2023/05/12 00:43:28;;;;;;;35.60;23.70;;;12.20;99.90;;;;;;5024516;28;20041;-58
2023/05/12 00:45:55;;;;;;;44.28;25.20;;;12.10;99.90;;;;;;5023559;28;20041;-60
2023/05/12 00:48:21;;;;;;;42.03;25.27;;;12.10;99.90;;;;;;5024446;28;20046;-56
2023/05/12 00:50:47;;;;;;;38.45;25.33;;;12.10;99.90;;;;;;5024793;28;20085;-59
2023/05/12 00:53:12;;;;;;;39.47;24.88;;;12.10;99.90;;;;;;5024169;28;20096;-54
2023/05/12 00:55:38;;;;;;;37.17;25.25;;;12.10;99.90;;;;;;5024100;28;20045;-55
2023/05/12 00:58:04;;;;;;;39.53;25.10;;;12.10;99.90;;;;;;5005575;28;20052;-51
2023/05/12 01:00:30;;;;;;;42.00;25.92;;;12.10;99.90;;;;;;5024337;28;20124;-56
2023/05/12 01:02:58;;;;;;;41.83;26.73;;;12.10;99.90;;;;;;5023905;28;20045;-62
2023/05/12 01:05:30;;;;;;;39.75;26.00;;;12.10;99.90;;;;;;5024060;28;20535;-57
2023/05/12 01:07:59;;;;;;;43.55;26.40;;;12.20;99.90;;;;;;5023976;28;20136;-59
2023/05/12 01:10:25;;;;;;;41.55;25.13;;;12.10;99.90;;;;;;5023054;28;20046;-59
2023/05/12 01:12:50;;;;;;;42.67;25.85;;;12.10;99.90;;;;;;5023366;28;20137;-59
2023/05/12 01:15:17;;;;;;;48.15;26.73;;;12.20;99.90;;;;;;5023664;28;20558;-61
2023/05/12 01:17:54;;;;;;;45.38;27.33;;;12.10;99.90;;;;;;5023515;28;20049;-57
2023/05/12 01:20:24;;;;;;;36.42;24.52;;;12.20;99.90;;;;;;5031718;28;20053;-61
2023/05/12 01:22:50;;;;;;;39.45;25.45;;;12.20;99.90;;;;;;5043301;28;20364;-49
2023/05/12 01:25:17;;;;;;;38.00;26.80;;;12.20;99.90;;;;;;5044141;28;20049;-57
2023/05/12 01:27:45;;;;;;;43.90;26.48;;;12.20;99.90;;;;;;5043312;28;20563;-62
2023/05/12 01:30:15;;;;;;;40.50;27.58;;;12.20;99.90;;;;;;5043145;28;20048;-61
2023/05/12 01:32:41;;;;;;;44.10;27.48;;;12.10;99.90;;;;;;5043281;28;20045;-58
2023/05/12 01:35:07;;;;;;;41.83;27.80;;;12.20;99.90;;;;;;5025826;28;20052;-60
2023/05/12 01:37:33;;;;;;;44.20;28.45;;;12.10;99.90;;;;;;5043136;28;20033;-61
2023/05/12 01:39:58;;;;;;;45.60;27.65;;;12.10;99.90;;;;;;5042506;28;20106;-54
2023/05/12 01:42:24;;;;;;;41.22;26.50;;;12.20;99.90;;;;;;5042412;28;20411;-55
2023/05/12 01:44:50;;;;;;;41.17;27.08;;;12.20;99.90;;;;;;5043118;28;20500;-57
2023/05/12 01:47:15;;;;;;;41.33;26.23;;;12.20;99.90;;;;;;5025477;28;20051;-60
2023/05/12 01:49:41;;;;;;;42.38;26.77;;;12.20;99.90;;;;;;5043038;28;20072;-58
2023/05/12 01:52:07;;;;;;;41.28;26.08;;;12.20;99.90;;;;;;5043209;28;20037;-57
2023/05/12 01:54:33;;;;;;;40.22;27.20;;;12.20;99.90;;;;;;5043179;28;20123;-61
2023/05/12 01:56:58;;;;;;;40.28;26.05;;;12.20;99.90;;;;;;5041362;28;20076;-56
2023/05/12 01:59:24;;;;;;;41.20;26.23;;;12.20;99.90;;;;;;5043100;28;20128;-61
2023/05/12 02:01:49;;;;;;;44.45;28.08;;;12.10;99.90;;;;;;5042762;28;20515;-59
2023/05/12 02:04:15;;;;;;;40.33;26.45;;;12.10;99.90;;;;;;5043062;28;20132;-59
2023/05/12 02:06:41;;;;;;;39.75;25.17;;;12.20;99.90;;;;;;5042688;28;20106;-61
2023/05/12 02:09:07;;;;;;;40.67;27.25;;;12.10;99.90;;;;;;5042784;28;20123;-58
2023/05/12 02:11:32;;;;;;;42.47;26.05;;;12.10;99.90;;;;;;5041730;28;20514;-58
2023/05/12 02:13:58;;;;;;;40.92;26.90;;;12.10;99.90;;;;;;5042330;28;20468;-56
2023/05/12 02:16:24;;;;;;;42.35;25.45;;;12.10;99.90;;;;;;5042123;28;20515;-61
2023/05/12 02:18:50;;;;;;;47.65;27.80;;;12.20;99.90;;;;;;5041758;28;20429;-62
2023/05/12 02:21:15;;;;;;;46.47;27.17;;;12.10;99.90;;;;;;5041656;28;20127;-56
2023/05/12 02:23:41;;;;;;;43.03;26.08;;;12.10;99.90;;;;;;5041765;28;20049;-61
2023/05/12 02:26:07;;;;;;;42.28;26.25;;;12.20;99.90;;;;;;5041037;28;20084;-58
2023/05/12 02:28:32;;;;;;;39.75;26.08;;;12.10;99.90;;;;;;5041347;28;20052;-61
2023/05/12 02:30:58;;;;;;;48.05;25.83;;;12.10;99.90;;;;;;5041351;28;20084;-60
2023/05/12 02:33:24;;;;;;;45.53;26.55;;;12.10;99.90;;;;;;5023983;28;20049;-57
2023/05/12 02:35:50;;;;;;;42.08;26.02;;;12.00;99.90;;;;;;5041088;28;20127;-61
2023/05/12 02:38:16;;;;;;;48.28;28.00;;;12.00;99.90;;;;;;5040557;28;20052;-55
2023/05/12 02:40:41;;;;;;;46.47;26.98;;;12.00;99.90;;;;;;5041193;28;20076;-60
2023/05/12 02:43:07;;;;;;;43.25;25.35;;;12.00;99.90;;;;;;5040946;28;20040;-61
2023/05/12 02:45:33;;;;;;;48.72;26.25;;;11.90;99.90;;;;;;5041046;28;20067;-53
2023/05/12 02:47:58;;;;;;;48.25;27.52;;;11.90;99.90;;;;;;5041144;28;20480;-61
2023/05/12 02:50:24;;;;;;;45.42;27.33;;;11.90;99.90;;;;;;5041245;28;20399;-58
2023/05/12 02:52:50;;;;;;;43.60;25.80;;;11.90;99.90;;;;;;5041324;28;20128;-56
2023/05/12 02:55:16;;;;;;;46.97;26.73;;;11.90;99.90;;;;;;5039745;28;20049;-59
2023/05/12 02:57:42;;;;;;;44.75;25.92;;;11.90;99.90;;;;;;5021207;28;20042;-58
2023/05/12 03:00:09;;;;;;;47.70;27.73;;;11.90;99.90;;;;;;5003677;28;20045;-60
2023/05/12 03:02:37;;;;;;;45.60;26.08;;;11.80;99.90;;;;;;5020352;28;20528;-55
2023/05/12 03:05:03;;;;;;;47.55;26.92;;;11.80;99.90;;;;;;5021399;28;20051;-57
2023/05/12 03:07:29;;;;;;;44.83;27.00;;;11.80;99.90;;;;;;5003186;28;20722;-62
2023/05/12 03:09:54;;;;;;;45.72;26.65;;;11.80;99.90;;;;;;5020824;28;20128;-55
2023/05/12 03:12:20;;;;;;;49.47;28.98;;;11.80;99.90;;;;;;5021066;28;20034;-62
2023/05/12 03:14:46;;;;;;;46.40;27.67;;;11.80;99.90;;;;;;4982537;28;1105986;-57
2023/05/12 03:17:12;;;;;;;49.35;29.13;;;11.80;99.90;;;;;;5021393;28;20133;-58
2023/05/12 03:19:38;;;;;;;48.80;28.08;;;11.80;99.90;;;;;;5021648;28;20052;-60
2023/05/12 03:22:06;;;;;;;45.30;28.17;;;11.80;99.90;;;;;;5021925;28;20044;-54
2023/05/12 03:24:32;;;;;;;56.00;29.90;;;11.70;99.90;;;;;;5022121;28;20407;-58
2023/05/12 03:26:57;;;;;;;50.33;29.77;;;11.80;99.90;;;;;;5020679;28;20049;-60
2023/05/12 03:29:23;;;;;;;52.97;30.40;;;11.80;99.90;;;;;;5022320;28;20541;-51
2023/05/12 03:31:49;;;;;;;52.05;30.20;;;11.80;99.90;;;;;;5021576;28;20137;-62
2023/05/12 03:34:15;;;;;;;53.97;30.63;;;11.80;99.90;;;;;;5020599;28;20038;-57
2023/05/12 03:36:41;;;;;;;61.35;33.50;;;11.80;99.90;;;;;;5021438;28;20041;-58
2023/05/12 03:39:08;;;;;;;56.95;31.58;;;11.80;99.90;;;;;;5021340;28;20045;-62
2023/05/12 03:41:34;;;;;;;58.08;32.53;;;11.80;99.90;;;;;;5020308;28;20410;-56
2023/05/12 03:44:00;;;;;;;61.47;31.45;;;11.80;99.90;;;;;;5021765;28;20037;-59
2023/05/12 03:46:26;;;;;;;54.90;31.67;;;11.80;99.90;;;;;;5020564;28;20468;-57
2023/05/12 03:48:52;;;;;;;61.08;32.40;;;11.80;99.90;;;;;;5025585;28;20053;-60
2023/05/12 03:51:18;;;;;;;58.00;30.85;;;11.70;99.90;;;;;;5024610;28;20053;-61
2023/05/12 03:53:46;;;;;;;55.55;31.98;;;11.80;99.90;;;;;;5025488;28;20034;-55
2023/05/12 03:56:12;;;;;;;55.90;31.85;;;11.80;99.90;;;;;;5024877;28;20408;-61
2023/05/12 03:58:37;;;;;;;60.85;32.17;;;11.70;99.90;;;;;;5024497;28;20095;-60
2023/05/12 04:01:04;;;;;;;59.30;31.65;;;11.80;99.90;;;;;;5025487;28;20073;-57
2023/05/12 04:03:30;;;;;;;59.15;31.75;;;11.80;99.90;;;;;;5025128;28;20419;-59
2023/05/12 04:05:59;;;;;;;62.00;31.70;;;11.70;99.90;;;;;;5024358;28;20041;-58
2023/05/12 04:08:25;;;;;;;59.80;31.98;;;11.70;99.90;;;;;;5025599;28;20509;-54
2023/05/12 04:10:57;;;;;;;71.93;31.75;;;11.70;99.90;;;;;;5006922;28;20085;-60
2023/05/12 04:13:24;;;;;;;59.25;29.92;;;11.60;99.90;;;;;;5007363;28;20125;-61
2023/05/12 04:15:50;;;;;;;66.43;31.38;;;11.70;99.90;;;;;;5024627;28;20084;-59
2023/05/12 04:18:16;;;;;;;64.25;31.15;;;11.60;99.90;;;;;;5025068;28;20045;-57
2023/05/12 04:20:43;;;;;;;65.25;31.67;;;11.60;99.90;;;;;;5024572;28;20049;-58
2023/05/12 04:23:09;;;;;;;62.88;32.00;;;11.60;99.90;;;;;;5024794;28;20072;-57
2023/05/12 04:25:39;;;;;;;54.67;29.75;;;11.70;99.90;;;;;;5024157;28;20084;-59
2023/05/12 04:28:05;;;;;;;58.40;29.77;;;11.70;99.90;;;;;;5024623;28;20048;-61
2023/05/12 04:30:31;;;;;;;59.17;32.65;;;11.70;99.90;;;;;;5024917;28;20591;-58
2023/05/12 04:32:56;;;;;;;60.53;32.13;;;11.60;99.90;;;;;;5025205;28;20110;-60
2023/05/12 04:35:22;;;;;;;62.80;32.40;;;11.70;99.90;;;;;;5024819;28;20052;-59
2023/05/12 04:37:48;;;;;;;55.30;32.83;;;11.70;99.90;;;;;;5024057;28;20550;-55
2023/05/12 04:40:13;;;;;;;56.47;30.17;;;11.70;99.90;;;;;;5024124;28;20068;-61
2023/05/12 04:42:39;;;;;;;55.15;29.42;;;11.70;99.90;;;;;;5024096;28;20037;-60
2023/05/12 04:45:06;;;;;;;54.13;29.98;;;11.70;99.90;;;;;;5024137;28;20053;-61
2023/05/12 04:47:31;;;;;;;52.47;30.65;;;11.70;99.90;;;;;;5024521;28;20068;-61
2023/05/12 04:49:57;;;;;;;57.20;30.65;;;11.70;99.90;;;;;;5025245;28;20389;-55
2023/05/12 04:52:23;;;;;;;65.80;31.45;;;11.70;99.90;;;;;;5024057;28;20049;-51
2023/05/12 04:54:49;;;;;;;56.88;32.05;;;11.70;99.90;;;;;;5024058;28;20230;-56
2023/05/12 04:57:15;;;;;;;54.58;31.63;;;11.70;99.90;;;;;;5023695;28;20041;-56
2023/05/12 04:59:41;;;;;;;58.63;32.55;;;11.70;99.90;;;;;;5023577;28;20296;-60
2023/05/12 05:02:07;;;;;;;55.80;30.63;;;11.80;99.90;;;;;;5005708;28;20044;-56
2023/05/12 05:04:33;;;;;;;49.67;31.00;;;11.80;99.90;;;;;;5024465;28;20046;-61
2023/05/12 05:06:59;;;;;;;54.72;31.13;;;11.80;99.90;;;;;;5024615;28;20048;-57
2023/05/12 05:09:24;;;;;;;47.83;29.40;;;11.80;99.90;;;;;;5023470;28;20034;-57
2023/05/12 05:11:50;;;;;;;54.60;31.17;;;11.80;99.90;;;;;;5023633;28;20049;-57
2023/05/12 05:14:16;;;;;;;61.05;31.17;;;11.90;99.90;;;;;;5023728;28;20050;-53
2023/05/12 05:16:41;;;;;;;53.97;30.13;;;11.90;99.90;;;;;;5023911;28;20110;-59
2023/05/12 05:19:07;;;;;;;57.85;31.90;;;11.90;99.90;;;;;;5023189;28;20056;-57
2023/05/12 05:21:33;;;;;;;55.80;31.77;;;11.90;99.90;;;;;;5024444;28;20372;-59
2023/05/12 05:23:59;;;;;;;57.35;32.45;;;11.90;99.90;;;;;;5024127;28;20781;-60
2023/05/12 05:26:25;;;;;;;56.42;30.95;;;11.90;99.90;;;;;;5022914;28;20034;-56
2023/05/12 05:28:53;;;;;;;56.85;32.38;;;12.00;99.90;;;;;;5023901;28;20753;-57
2023/05/12 05:31:20;;;;;;;57.03;31.23;;;12.00;99.90;;;;;;5023269;28;20053;-61
2023/05/12 05:33:46;;;;;;;56.67;32.83;;;12.10;99.90;;;;;;5022869;28;20050;-54
2023/05/12 05:36:12;;;;;;;57.92;32.28;;;12.10;99.90;;;;;;5023850;28;20042;-60
2023/05/12 05:38:38;;;;;;;57.13;33.60;;;12.20;99.90;;;;;;5023472;28;20500;-53
2023/05/12 05:41:05;;;;;;;60.45;34.88;;;12.20;99.90;;;;;;5004880;28;20057;-50
2023/05/12 05:43:30;;;;;;;59.70;34.13;;;12.30;99.90;;;;;;5023603;28;20044;-59
2023/05/12 05:45:57;;;;;;;56.40;33.05;;;12.30;99.90;;;;;;5023554;28;20516;-55
2023/05/12 05:48:23;;;;;;;57.17;32.83;;;12.30;99.90;;;;;;5023531;28;20100;-51
2023/05/12 05:50:51;;;;;;;54.40;33.20;;;12.40;99.90;;;;;;5022343;28;20056;-61
2023/05/12 05:53:18;;;;;;;59.78;33.50;;;12.40;99.90;;;;;;5023576;28;20048;-54
2023/05/12 05:55:44;;;;;;;55.72;32.72;;;12.40;99.90;;;;;;5022725;28;20081;-60
2023/05/12 05:58:10;;;;;;;57.25;34.85;;;12.40;99.90;;;;;;5022643;28;20041;-60
2023/05/12 06:00:35;;;;;;;52.80;33.22;;;12.50;99.90;;;;;;5022984;28;20467;-54
2023/05/12 06:03:01;;;;;;;57.70;33.92;;;12.50;99.90;;;;;;5023575;28;20037;-61
2023/05/12 06:05:27;;;;;;;61.10;36.80;;;12.50;99.90;;;;;;5004948;28;20050;-56
2023/05/12 06:07:53;;;;;;;64.97;36.88;;;12.60;99.90;;;;;;5023071;28;20042;-59
2023/05/12 06:10:18;;;;;;;62.33;36.10;;;12.70;99.90;;;;;;5020734;28;20128;-60
2023/05/12 06:12:44;;;;;;;61.35;36.03;;;12.70;99.90;;;;;;5022475;28;20124;-56
2023/05/12 06:15:10;;;;;;;61.78;37.85;;;12.70;99.90;;;;;;5021639;28;20057;-58
2023/05/12 06:17:36;;;;;;;68.05;39.05;;;12.80;99.90;;;;;;5022679;28;20056;-55
2023/05/12 06:20:04;;;;;;;70.82;39.33;;;12.80;99.90;;;;;;5023111;28;20116;-59
2023/05/12 06:22:30;;;;;;;64.00;37.85;;;12.80;99.90;;;;;;5022011;28;20041;-52
2023/05/12 06:24:55;;;;;;;69.05;40.78;;;12.80;99.90;;;;;;5022009;28;20042;-54
2023/05/12 06:27:21;;;;;;;62.60;39.38;;;12.90;99.90;;;;;;5022380;28;20102;-61
2023/05/12 06:29:47;;;;;;;67.07;39.97;;;12.90;99.90;;;;;;5021626;28;20045;-57
2023/05/12 06:32:13;;;;;;;63.30;40.20;;;12.90;99.90;;;;;;5022921;28;20456;-58
2023/05/12 06:34:39;;;;;;;63.88;40.05;;;12.90;99.90;;;;;;5022269;28;20128;-60
2023/05/12 06:37:05;;;;;;;62.90;40.22;;;13.00;99.90;;;;;;5005031;28;20095;-53
2023/05/12 06:39:30;;;;;;;66.70;40.60;;;13.00;99.90;;;;;;5022318;28;20132;-59
2023/05/12 06:41:56;;;;;;;64.55;40.85;;;13.10;99.90;;;;;;5021144;28;20079;-54
2023/05/12 06:44:21;;;;;;;60.72;40.50;;;13.10;99.90;;;;;;5022528;28;20548;-61
2023/05/12 06:46:47;;;;;;;57.92;37.05;;;13.20;99.90;;;;;;5021623;28;20497;-50
2023/05/12 06:49:13;;;;;;;63.33;40.30;;;13.20;99.90;;;;;;5022244;28;20046;-56
2023/05/12 06:51:38;;;;;;;66.82;43.17;;;13.20;99.90;;;;;;5022223;28;20049;-68
2023/05/12 06:54:04;;;;;;;63.53;42.08;;;13.30;99.90;;;;;;5004296;28;20160;-49
2023/05/12 06:56:30;;;;;;;59.90;40.35;;;13.40;99.90;;;;;;5021101;28;20045;-59
2023/05/12 06:59:01;;;;;;;55.80;38.42;;;13.40;99.90;;;;;;5021701;28;20041;-59
2023/05/12 07:01:27;;;;;;;55.83;38.95;;;13.40;99.90;;;;;;5021834;28;20057;-52
2023/05/12 07:03:53;;;;;;;60.20;40.25;;;13.50;99.90;;;;;;5021607;28;20400;-59
2023/05/12 07:06:19;;;;;;;52.80;37.90;;;13.50;99.90;;;;;;5022314;28;20037;-54
2023/05/12 07:08:45;;;;;;;56.20;39.63;;;13.60;99.90;;;;;;5021693;28;20050;-57
2023/05/12 07:11:11;;;;;;;51.15;38.60;;;13.60;99.90;;;;;;5020649;28;20054;-60
2023/05/12 07:13:37;;;;;;;49.90;36.53;;;13.70;99.90;;;;;;5021883;28;20455;-59
2023/05/12 07:16:03;;;;;;;52.83;37.88;;;13.70;99.90;;;;;;5022027;28;20088;-59
2023/05/12 07:18:29;;;;;;;54.40;38.90;;;13.70;99.90;;;;;;5020934;28;20047;-61
2023/05/12 07:20:55;;;;;;;56.55;38.58;;;13.70;99.90;;;;;;5021422;28;20129;-56
2023/05/12 07:23:21;;;;;;;51.13;36.63;;;13.80;99.90;;;;;;5022055;28;20121;-59
2023/05/12 07:25:46;;;;;;;48.10;35.03;;;13.80;99.90;;;;;;5020671;28;20580;-58
2023/05/12 07:28:12;;;;;;;53.88;36.85;;;13.80;99.90;;;;;;5021234;28;20087;-58
2023/05/12 07:30:38;;;;;;;48.15;36.28;;;13.80;99.90;;;;;;5021739;28;20065;-59
2023/05/12 07:33:04;;;;;;;46.63;35.03;;;13.80;99.90;;;;;;5004216;28;20558;-55
2023/05/12 07:35:30;;;;;;;49.72;36.95;;;13.80;99.90;;;;;;5021228;28;20451;-58
2023/05/12 07:37:56;;;;;;;52.22;36.92;;;13.90;99.90;;;;;;5021301;28;20033;-56
2023/05/12 07:40:21;;;;;;;52.10;37.47;;;13.90;99.90;;;;;;5020713;28;20053;-53
2023/05/12 07:42:47;;;;;;;51.63;38.70;;;13.80;99.90;;;;;;5020908;28;20063;-61
2023/05/12 07:45:13;;;;;;;53.78;38.47;;;13.90;99.90;;;;;;5021425;28;20495;-57
2023/05/12 07:47:39;;;;;;;52.95;37.70;;;14.00;99.90;;;;;;5021955;28;20576;-59
2023/05/12 07:50:05;;;;;;;50.35;36.65;;;14.00;99.90;;;;;;5021366;28;20045;-56
2023/05/12 07:52:32;;;;;;;50.22;37.35;;;14.10;99.90;;;;;;5020797;28;20049;-57
2023/05/12 07:54:58;;;;;;;53.10;38.50;;;14.20;99.90;;;;;;5020962;28;20072;-56
2023/05/12 07:57:24;;;;;;;50.10;36.40;;;14.30;99.90;;;;;;5021027;28;20700;-56
2023/05/12 07:59:50;;;;;;;49.42;36.63;;;14.40;99.90;;;;;;5021682;28;20291;-61
2023/05/12 08:02:16;;;;;;;46.47;33.55;;;14.50;99.90;;;;;;5021430;28;20424;-58
2023/05/12 08:04:42;;;;;;;45.03;35.38;;;14.70;99.90;;;;;;5021354;28;20120;-56
2023/05/12 08:07:07;;;;;;;46.78;34.58;;;14.80;99.90;;;;;;5020732;28;20080;-57
2023/05/12 08:09:33;;;;;;;44.47;33.80;;;14.90;99.90;;;;;;5020935;28;20774;-56
2023/05/12 08:12:00;;;;;;;44.30;33.92;;;15.00;99.90;;;;;;5020862;28;20048;-61
2023/05/12 08:14:26;;;;;;;41.05;32.15;;;15.20;99.90;;;;;;5020928;28;20339;-59
2023/05/12 08:16:51;;;;;;;43.50;32.53;;;15.30;99.90;;;;;;5020575;28;20288;-56
2023/05/12 08:19:17;;;;;;;43.88;32.95;;;15.40;99.90;;;;;;5021048;28;20106;-57
2023/05/12 08:21:43;;;;;;;38.45;29.60;;;15.60;99.90;;;;;;5021002;28;20037;-56
2023/05/12 08:24:09;;;;;;;35.25;27.45;;;15.80;99.90;;;;;;5020942;28;20075;-61
2023/05/12 08:26:34;;;;;;;34.78;28.02;;;16.00;99.90;;;;;;5020169;28;20516;-58
2023/05/12 08:29:00;;;;;;;33.85;26.05;;;16.20;99.90;;;;;;5021153;28;20543;-55
2023/05/12 08:31:26;;;;;;;32.58;24.45;;;16.40;99.90;;;;;;5020822;28;20535;-58
2023/05/12 08:33:52;;;;;;;31.60;24.90;;;16.60;99.90;;;;;;5022430;28;20422;-53
2023/05/12 08:36:18;;;;;;;31.80;24.00;;;16.70;99.90;;;;;;5024819;28;20050;-61
2023/05/12 08:38:43;;;;;;;29.95;23.77;;;16.80;99.90;;;;;;5024507;28;20094;-59
2023/05/12 08:41:23;;;;;;;30.00;25.65;;;17.00;99.90;;;;;;5023829;28;20132;-58
2023/05/12 08:43:52;;;;;;;33.58;24.92;;;17.00;99.90;;;;;;5006743;28;20050;-61
2023/05/12 08:46:18;;;;;;;31.83;24.75;;;17.10;99.90;;;;;;5023766;28;20157;-58
2023/05/12 08:48:50;;;;;;;29.13;23.38;;;17.30;99.90;;;;;;5024680;28;20045;-62
2023/05/12 08:51:17;;;;;;;28.67;23.25;;;17.30;99.90;;;;;;5024186;28;20558;-55
2023/05/12 08:53:46;;;;;;;24.98;21.33;;;17.40;99.90;;;;;;5024978;28;20042;-60
2023/05/12 08:56:13;;;;;;;27.15;22.73;;;17.50;99.90;;;;;;5025853;28;20064;-52
2023/05/12 08:58:38;;;;;;;27.73;22.23;;;17.60;99.90;;;;;;5027461;28;20056;-59
2023/05/12 09:01:06;;;;;;;27.63;21.92;;;17.80;99.90;;;;;;5025643;28;20042;-60
2023/05/12 09:03:33;;;;;;;25.88;22.23;;;17.80;99.90;;;;;;5024030;28;20076;-56
2023/05/12 09:05:59;;;;;;;25.77;21.30;;;18.00;99.90;;;;;;5024438;28;20049;-61
2023/05/12 09:08:27;;;;;;;24.67;21.15;;;18.10;99.90;;;;;;5024429;28;20400;-61
2023/05/12 09:10:57;;;;;;;24.15;20.50;;;18.20;99.90;;;;;;5004799;28;20056;-59
2023/05/12 09:13:27;;;;;;;24.55;20.55;;;18.30;99.90;;;;;;5024016;28;20057;-57
2023/05/12 09:15:57;;;;;;;26.25;21.05;;;18.30;99.90;;;;;;5023459;28;20050;-55
2023/05/12 09:18:23;;;;;;;22.15;19.58;;;18.40;99.90;;;;;;5024332;28;20251;-54
2023/05/12 09:20:48;;;;;;;22.73;20.33;;;18.50;99.90;;;;;;5023637;28;20041;-57
2023/05/12 09:23:17;;;;;;;22.83;18.48;;;18.60;99.90;;;;;;5024394;28;20053;-51
2023/05/12 09:25:43;;;;;;;26.02;20.45;;;18.70;99.90;;;;;;5023259;28;20034;-51
2023/05/12 09:28:09;;;;;;;24.30;20.88;;;18.70;99.90;;;;;;5023758;28;20049;-60
2023/05/12 09:30:37;;;;;;;23.40;21.00;;;18.80;99.90;;;;;;5023485;28;20068;-53
2023/05/12 09:33:10;;;;;;;22.63;19.30;;;19.00;99.90;;;;;;5024347;28;20412;-65
2023/05/12 09:35:40;;;;;;;25.30;20.85;;;19.20;99.90;;;;;;5043808;28;20049;-63
2023/05/12 09:38:11;;;;;;;23.60;20.60;;;19.40;99.90;;;;;;5043606;28;20041;-63
2023/05/12 09:40:36;;;;;;;23.00;19.40;;;19.50;99.90;;;;;;5042500;28;20048;-60
2023/05/12 09:43:06;;;;;;;22.23;18.50;;;19.60;99.90;;;;;;5042777;28;20033;-59
2023/05/12 09:45:34;;;;;;;21.83;18.02;;;19.80;99.90;;;;;;5042134;28;20103;-58
2023/05/12 09:48:10;;;;;;;20.00;16.70;;;20.10;99.90;;;;;;5043636;28;20087;-61
2023/05/12 09:50:46;;;;;;;19.65;17.05;;;20.20;99.90;;;;;;5042841;28;20049;-57
2023/05/12 09:53:13;;;;;;;20.20;15.55;;;20.50;99.90;;;;;;5042541;28;20076;-54
2023/05/12 09:55:41;;;;;;;19.50;15.75;;;20.70;99.90;;;;;;5042592;28;20392;-57
2023/05/12 09:58:09;;;;;;;17.92;16.02;;;20.90;99.90;;;;;;5043229;28;20055;-63
2023/05/12 10:00:38;;;;;;;17.95;16.15;;;21.00;99.90;;;;;;5042312;28;20045;-61
2023/05/12 10:03:10;;;;;;;15.88;14.27;;;21.10;99.90;;;;;;5042906;28;20114;-58
2023/05/12 10:05:42;;;;;;;17.13;15.32;;;21.20;99.90;;;;;;5042722;28;20041;-58
2023/05/12 10:08:11;;;;;;;18.98;14.05;;;21.40;99.90;;;;;;5042784;28;20076;-62
2023/05/12 10:10:38;;;;;;;14.35;12.85;;;21.40;99.90;;;;;;5041893;28;20604;-58
2023/05/12 10:13:05;;;;;;;15.25;13.48;;;21.50;99.90;;;;;;5042498;28;20045;-57
2023/05/12 10:15:32;;;;;;;15.63;13.73;;;21.50;99.90;;;;;;5042281;28;20349;-58
2023/05/12 10:17:59;;;;;;;15.77;14.02;;;21.50;99.90;;;;;;5042688;28;20090;-53
2023/05/12 10:20:26;;;;;;;13.93;12.32;;;21.40;99.90;;;;;;5042793;28;20431;-59
2023/05/12 10:22:54;;;;;;;15.35;12.18;;;21.60;99.90;;;;;;5042055;28;20127;-62
2023/05/12 10:25:20;;;;;;;13.35;11.95;;;21.80;99.90;;;;;;5041717;28;20319;-59
2023/05/12 10:27:47;;;;;;;15.18;11.60;;;22.00;99.90;;;;;;5042907;28;20052;-63
2023/05/12 10:30:14;;;;;;;13.38;11.80;;;22.20;99.90;;;;;;5042070;28;20090;-59
2023/05/12 10:32:40;;;;;;;12.68;11.38;;;22.30;99.90;;;;;;5042646;28;20044;-56
2023/05/12 10:35:12;;;;;;;14.82;10.98;;;22.30;99.90;;;;;;5024530;28;20033;-60
2023/05/12 10:37:38;;;;;;;12.75;10.75;;;22.40;99.90;;;;;;5041611;28;20129;-58
2023/05/12 10:40:05;;;;;;;10.68;9.63;;;22.50;99.90;;;;;;5041541;28;20056;-59
2023/05/12 10:42:40;;;;;;;11.90;10.63;;;22.50;99.90;;;;;;5041860;28;20094;-56
2023/05/12 10:45:16;;;;;;;11.77;10.57;;;22.50;99.90;;;;;;5041872;28;20045;-59
2023/05/12 10:47:43;;;;;;;12.27;9.73;;;22.60;99.90;;;;;;5042217;28;20048;-62
2023/05/12 10:50:12;;;;;;;11.25;9.05;;;22.70;99.90;;;;;;5033165;28;20041;-56
2023/05/12 10:52:39;;;;;;;10.30;9.30;;;22.90;99.90;;;;;;5040858;28;20084;-53
2023/05/12 10:55:09;;;;;;;11.93;8.70;;;22.80;99.90;;;;;;5039477;28;20095;-57
2023/05/12 10:57:48;;;;;;;11.13;8.57;;;22.90;99.90;;;;;;5040563;28;20514;-55
2023/05/12 11:00:14;;;;;;;8.85;7.63;;;22.90;99.90;;;;;;5042096;28;20127;-58
2023/05/12 11:02:48;;;;;;;9.32;7.63;;;22.90;99.90;;;;;;5041811;28;20124;-59
2023/05/12 11:05:14;;;;;;;8.05;6.90;;;22.90;99.90;;;;;;5023984;28;20270;-62
2023/05/12 11:07:47;;;;;;;8.77;7.10;;;23.00;99.90;;;;;;5041295;28;20126;-57
2023/05/12 11:10:13;;;;;;;9.80;7.07;;;23.00;99.90;;;;;;5040392;28;20037;-53
2023/05/12 11:12:41;;;;;;;10.57;6.05;;;23.00;99.90;;;;;;5041384;28;20076;-57
2023/05/12 11:15:07;;;;;;;9.15;6.57;;;23.00;99.90;;;;;;5041642;28;20102;-56
2023/05/12 11:17:36;;;;;;;10.98;7.68;;;23.10;99.90;;;;;;5041584;28;20080;-58
2023/05/12 11:20:02;;;;;;;8.55;6.60;;;23.20;99.90;;;;;;5041167;28;20222;-57
2023/05/12 11:22:28;;;;;;;12.95;7.05;;;23.40;99.90;;;;;;5041766;28;20091;-55
2023/05/12 11:24:54;;;;;;;9.10;6.68;;;23.50;99.90;;;;;;5023001;28;20048;-59
2023/05/12 11:27:21;;;;;;;7.57;6.78;;;23.50;99.90;;;;;;5041205;28;20045;-56
2023/05/12 11:29:58;;;;;;;7.47;6.68;;;23.50;99.90;;;;;;5041710;28;20120;-59
2023/05/12 11:32:24;;;;;;;8.15;5.72;;;23.60;99.90;;;;;;5041112;28;20156;-53
2023/05/12 11:34:49;;;;;;;7.22;5.65;;;23.60;99.90;;;;;;5041309;28;20218;-59
2023/05/12 11:37:16;;;;;;;6.88;5.15;;;23.60;99.90;;;;;;5041475;28;20111;-53
2023/05/12 11:39:42;;;;;;;6.05;4.90;;;23.60;99.90;;;;;;5040954;28;20059;-56
2023/05/12 11:42:09;;;;;;;6.65;4.88;;;23.60;99.80;;;;;;5022182;28;20045;-57
2023/05/12 11:44:35;;;;;;;6.45;4.95;;;23.60;99.90;;;;;;5041138;28;20437;-50
2023/05/12 11:47:13;;;;;;;6.07;4.03;;;23.50;99.50;;;;;;5023621;28;20526;-59
2023/05/12 11:49:55;;;;;;;5.25;3.78;;;23.50;96.90;;;;;;5040404;28;20492;-53
2023/05/12 11:52:23;;;;;;;5.63;3.90;;;23.50;97.10;;;;;;5042672;28;20044;-56
2023/05/12 11:54:55;;;;;;;5.82;4.30;;;23.60;98.90;;;;;;5042437;28;20088;-58
2023/05/12 11:57:26;;;;;;;5.68;4.30;;;23.60;97.60;;;;;;5044453;28;20041;-57
2023/05/12 12:00:00;;;;;;;6.88;4.57;;;23.70;97.60;;;;;;5041835;28;20047;-59
2023/05/12 12:02:26;;;;;;;9.05;4.40;;;23.60;96.20;;;;;;5041288;28;20041;-58
2023/05/12 12:04:52;;;;;;;5.63;5.03;;;23.70;98.30;;;;;;5041315;28;20051;-56
2023/05/12 12:07:35;;;;;;;5.95;4.95;;;23.80;98.40;;;;;;5041101;28;20044;-57
2023/05/12 12:10:15;;;;;;;5.20;4.45;;;24.00;97.50;;;;;;5025949;28;20257;-60
2023/05/12 12:12:41;;;;;;;4.80;4.25;;;23.90;96.40;;;;;;5044304;28;20135;-55
2023/05/12 12:15:08;;;;;;;5.30;3.50;;;23.90;98.40;;;;;;5044846;28;20468;-60
2023/05/12 12:17:34;;;;;;;8.07;4.00;;;24.00;97.90;;;;;;5044676;28;20191;-49
2023/05/12 12:20:00;;;;;;;6.07;3.45;;;23.90;96.90;;;;;;5045214;28;20124;-56
2023/05/12 12:22:26;;;;;;;5.38;3.35;;;23.90;97.20;;;;;;5044384;28;20411;-61
2023/05/12 12:24:51;;;;;;;5.20;3.28;;;23.90;96.50;;;;;;5044369;28;20037;-55
2023/05/12 12:27:17;;;;;;;6.57;3.22;;;24.00;96.80;;;;;;5044936;28;20167;-61